sensor_id;sensor_type;location;lat;lon;timestamp;P1;durP1;ratioP1;P2;durP2;ratioP2
8982;SDS011;20979;59.850;10.660;2024-03-08T00:00:42;7.43;;;4.47;;
8982;SDS011;20979;59.850;10.660;2024-03-08T00:03:09;6.73;;;3.97;;
8982;SDS011;20979;59.850;10.660;2024-03-08T00:05:36;8.83;;;4.33;;
8982;SDS011;20979;59.850;10.660;2024-03-08T00:08:05;6.37;;;4.27;;
8982;SDS011;20979;59.850;10.660;2024-03-08T00:10:36;8.30;;;4.17;;
8982;SDS011;20979;59.850;10.660;2024-03-08T00:13:04;7.60;;;4.20;;
8982;SDS011;20979;59.850;10.660;2024-03-08T00:15:31;6.73;;;4.53;;
8982;SDS011;20979;59.850;10.660;2024-03-08T00:18:00;7.33;;;4.37;;
8982;SDS011;20979;59.850;10.660;2024-03-08T00:20:27;7.03;;;4.30;;
8982;SDS011;20979;59.850;10.660;2024-03-08T00:22:54;7.63;;;4.53;;
8982;SDS011;20979;59.850;10.660;2024-03-08T00:25:23;5.87;;;3.87;;
8982;SDS011;20979;59.850;10.660;2024-03-08T00:27:52;6.50;;;4.10;;
8982;SDS011;20979;59.850;10.660;2024-03-08T00:30:21;5.77;;;3.60;;
8982;SDS011;20979;59.850;10.660;2024-03-08T00:32:50;4.73;;;3.80;;
8982;SDS011;20979;59.850;10.660;2024-03-08T00:35:17;6.20;;;3.40;;
8982;SDS011;20979;59.850;10.660;2024-03-08T00:37:44;6.97;;;4.03;;
8982;SDS011;20979;59.850;10.660;2024-03-08T00:40:13;5.63;;;4.00;;
8982;SDS011;20979;59.850;10.660;2024-03-08T00:42:40;5.57;;;3.80;;
8982;SDS011;20979;59.850;10.660;2024-03-08T00:45:10;4.93;;;3.43;;
8982;SDS011;20979;59.850;10.660;2024-03-08T00:47:38;7.20;;;3.67;;
8982;SDS011;20979;59.850;10.660;2024-03-08T00:50:07;7.10;;;3.83;;
8982;SDS011;20979;59.850;10.660;2024-03-08T00:52:34;5.17;;;3.47;;
8982;SDS011;20979;59.850;10.660;2024-03-08T00:55:02;4.67;;;3.73;;
8982;SDS011;20979;59.850;10.660;2024-03-08T00:57:29;7.87;;;3.60;;
8982;SDS011;20979;59.850;10.660;2024-03-08T00:59:58;5.53;;;3.80;;
8982;SDS011;20979;59.850;10.660;2024-03-08T01:02:26;4.27;;;3.23;;
8982;SDS011;20979;59.850;10.660;2024-03-08T01:04:54;9.87;;;3.87;;
8982;SDS011;20979;59.850;10.660;2024-03-08T01:07:22;5.43;;;3.20;;
8982;SDS011;20979;59.850;10.660;2024-03-08T01:09:49;4.40;;;3.30;;
8982;SDS011;20979;59.850;10.660;2024-03-08T01:12:16;3.93;;;3.30;;
8982;SDS011;20979;59.850;10.660;2024-03-08T01:14:44;6.60;;;3.80;;
8982;SDS011;20979;59.850;10.660;2024-03-08T01:17:11;6.00;;;3.47;;
8982;SDS011;20979;59.850;10.660;2024-03-08T01:19:40;5.70;;;3.50;;
8982;SDS011;20979;59.850;10.660;2024-03-08T01:22:08;7.57;;;3.73;;
8982;SDS011;20979;59.850;10.660;2024-03-08T01:24:35;4.67;;;3.57;;
8982;SDS011;20979;59.850;10.660;2024-03-08T01:27:03;5.53;;;3.43;;
8982;SDS011;20979;59.850;10.660;2024-03-08T01:29:31;4.47;;;3.50;;
8982;SDS011;20979;59.850;10.660;2024-03-08T01:31:58;4.93;;;3.50;;
8982;SDS011;20979;59.850;10.660;2024-03-08T01:34:27;3.67;;;3.00;;
8982;SDS011;20979;59.850;10.660;2024-03-08T01:36:56;5.63;;;3.17;;
8982;SDS011;20979;59.850;10.660;2024-03-08T01:39:24;4.37;;;3.23;;
8982;SDS011;20979;59.850;10.660;2024-03-08T01:41:52;4.73;;;3.03;;
8982;SDS011;20979;59.850;10.660;2024-03-08T01:44:20;6.27;;;3.30;;
8982;SDS011;20979;59.850;10.660;2024-03-08T01:46:47;4.77;;;3.30;;
8982;SDS011;20979;59.850;10.660;2024-03-08T01:49:17;6.53;;;3.10;;
8982;SDS011;20979;59.850;10.660;2024-03-08T01:51:46;3.63;;;3.07;;
8982;SDS011;20979;59.850;10.660;2024-03-08T01:54:15;4.30;;;3.10;;
8982;SDS011;20979;59.850;10.660;2024-03-08T01:56:43;5.00;;;3.00;;
8982;SDS011;20979;59.850;10.660;2024-03-08T01:59:11;4.07;;;3.20;;
8982;SDS011;20979;59.850;10.660;2024-03-08T02:01:39;9.27;;;3.40;;
8982;SDS011;20979;59.850;10.660;2024-03-08T02:04:07;5.97;;;3.40;;
8982;SDS011;20979;59.850;10.660;2024-03-08T02:06:34;4.33;;;3.00;;
8982;SDS011;20979;59.850;10.660;2024-03-08T02:09:03;5.77;;;3.60;;
8982;SDS011;20979;59.850;10.660;2024-03-08T02:11:34;4.17;;;3.40;;
8982;SDS011;20979;59.850;10.660;2024-03-08T02:14:01;4.70;;;3.50;;
8982;SDS011;20979;59.850;10.660;2024-03-08T02:16:31;5.97;;;3.80;;
8982;SDS011;20979;59.850;10.660;2024-03-08T02:18:59;4.70;;;3.30;;
8982;SDS011;20979;59.850;10.660;2024-03-08T02:21:27;3.97;;;3.50;;
8982;SDS011;20979;59.850;10.660;2024-03-08T02:23:56;3.83;;;3.13;;
8982;SDS011;20979;59.850;10.660;2024-03-08T02:26:23;3.67;;;3.17;;
8982;SDS011;20979;59.850;10.660;2024-03-08T02:28:50;3.40;;;3.07;;
8982;SDS011;20979;59.850;10.660;2024-03-08T02:31:18;3.90;;;3.40;;
8982;SDS011;20979;59.850;10.660;2024-03-08T02:33:47;6.50;;;3.37;;
8982;SDS011;20979;59.850;10.660;2024-03-08T02:36:14;3.80;;;2.90;;
8982;SDS011;20979;59.850;10.660;2024-03-08T02:38:43;3.60;;;2.97;;
8982;SDS011;20979;59.850;10.660;2024-03-08T02:41:10;4.77;;;3.40;;
8982;SDS011;20979;59.850;10.660;2024-03-08T02:43:37;4.17;;;3.20;;
8982;SDS011;20979;59.850;10.660;2024-03-08T02:46:05;4.23;;;3.20;;
8982;SDS011;20979;59.850;10.660;2024-03-08T02:48:32;4.00;;;3.10;;
8982;SDS011;20979;59.850;10.660;2024-03-08T02:51:00;4.93;;;3.20;;
8982;SDS011;20979;59.850;10.660;2024-03-08T02:53:28;6.13;;;3.30;;
8982;SDS011;20979;59.850;10.660;2024-03-08T02:55:57;6.07;;;3.03;;
8982;SDS011;20979;59.850;10.660;2024-03-08T02:58:24;3.07;;;2.77;;
8982;SDS011;20979;59.850;10.660;2024-03-08T03:00:52;7.20;;;3.20;;
8982;SDS011;20979;59.850;10.660;2024-03-08T03:03:20;4.53;;;3.27;;
8982;SDS011;20979;59.850;10.660;2024-03-08T03:05:47;3.93;;;2.67;;
8982;SDS011;20979;59.850;10.660;2024-03-08T03:08:15;5.30;;;3.10;;
8982;SDS011;20979;59.850;10.660;2024-03-08T03:10:42;4.90;;;3.13;;
8982;SDS011;20979;59.850;10.660;2024-03-08T03:13:11;4.87;;;3.33;;
8982;SDS011;20979;59.850;10.660;2024-03-08T03:15:39;4.30;;;2.80;;
8982;SDS011;20979;59.850;10.660;2024-03-08T03:18:07;5.13;;;2.70;;
8982;SDS011;20979;59.850;10.660;2024-03-08T03:20:34;4.40;;;2.80;;
8982;SDS011;20979;59.850;10.660;2024-03-08T03:23:05;3.33;;;2.70;;
8982;SDS011;20979;59.850;10.660;2024-03-08T03:25:34;2.73;;;2.50;;
8982;SDS011;20979;59.850;10.660;2024-03-08T03:28:04;4.57;;;3.00;;
8982;SDS011;20979;59.850;10.660;2024-03-08T03:30:37;3.50;;;2.80;;
8982;SDS011;20979;59.850;10.660;2024-03-08T03:33:04;5.93;;;3.27;;
8982;SDS011;20979;59.850;10.660;2024-03-08T03:35:32;4.43;;;3.00;;
8982;SDS011;20979;59.850;10.660;2024-03-08T03:37:59;5.73;;;3.10;;
8982;SDS011;20979;59.850;10.660;2024-03-08T03:40:32;2.97;;;2.63;;
8982;SDS011;20979;59.850;10.660;2024-03-08T03:42:59;4.60;;;3.20;;
8982;SDS011;20979;59.850;10.660;2024-03-08T03:45:27;3.87;;;3.07;;
8982;SDS011;20979;59.850;10.660;2024-03-08T03:48:00;5.03;;;3.00;;
8982;SDS011;20979;59.850;10.660;2024-03-08T03:50:27;4.27;;;2.90;;
8982;SDS011;20979;59.850;10.660;2024-03-08T03:52:55;5.80;;;3.17;;
8982;SDS011;20979;59.850;10.660;2024-03-08T03:55:22;4.00;;;3.03;;
8982;SDS011;20979;59.850;10.660;2024-03-08T03:57:49;5.03;;;3.20;;
8982;SDS011;20979;59.850;10.660;2024-03-08T04:00:17;5.07;;;2.93;;
8982;SDS011;20979;59.850;10.660;2024-03-08T04:02:45;3.83;;;2.57;;
8982;SDS011;20979;59.850;10.660;2024-03-08T04:05:14;3.67;;;2.80;;
8982;SDS011;20979;59.850;10.660;2024-03-08T04:07:42;4.53;;;2.77;;
8982;SDS011;20979;59.850;10.660;2024-03-08T04:10:11;3.20;;;2.90;;
8982;SDS011;20979;59.850;10.660;2024-03-08T04:12:39;2.87;;;2.47;;
8982;SDS011;20979;59.850;10.660;2024-03-08T04:15:07;3.83;;;2.77;;
8982;SDS011;20979;59.850;10.660;2024-03-08T04:17:36;4.53;;;2.90;;
8982;SDS011;20979;59.850;10.660;2024-03-08T04:20:03;4.50;;;2.63;;
8982;SDS011;20979;59.850;10.660;2024-03-08T04:22:36;4.43;;;2.67;;
8982;SDS011;20979;59.850;10.660;2024-03-08T04:25:04;2.97;;;2.67;;
8982;SDS011;20979;59.850;10.660;2024-03-08T04:27:32;5.37;;;2.93;;
8982;SDS011;20979;59.850;10.660;2024-03-08T04:29:59;3.17;;;2.77;;
8982;SDS011;20979;59.850;10.660;2024-03-08T04:32:27;3.00;;;2.67;;
8982;SDS011;20979;59.850;10.660;2024-03-08T04:34:55;3.83;;;2.43;;
8982;SDS011;20979;59.850;10.660;2024-03-08T04:37:23;4.37;;;2.73;;
8982;SDS011;20979;59.850;10.660;2024-03-08T04:39:52;2.83;;;2.20;;
8982;SDS011;20979;59.850;10.660;2024-03-08T04:42:20;3.23;;;2.30;;
8982;SDS011;20979;59.850;10.660;2024-03-08T04:44:47;4.53;;;2.70;;
8982;SDS011;20979;59.850;10.660;2024-03-08T04:47:15;5.07;;;2.30;;
8982;SDS011;20979;59.850;10.660;2024-03-08T04:49:43;4.07;;;2.57;;
8982;SDS011;20979;59.850;10.660;2024-03-08T04:52:10;3.63;;;2.50;;
8982;SDS011;20979;59.850;10.660;2024-03-08T04:54:37;2.60;;;2.40;;
8982;SDS011;20979;59.850;10.660;2024-03-08T04:57:06;2.70;;;2.40;;
8982;SDS011;20979;59.850;10.660;2024-03-08T04:59:34;3.10;;;2.80;;
8982;SDS011;20979;59.850;10.660;2024-03-08T05:02:01;3.40;;;2.50;;
8982;SDS011;20979;59.850;10.660;2024-03-08T05:04:28;3.63;;;2.23;;
8982;SDS011;20979;59.850;10.660;2024-03-08T05:06:56;2.77;;;2.30;;
8982;SDS011;20979;59.850;10.660;2024-03-08T05:09:26;7.23;;;2.33;;
8982;SDS011;20979;59.850;10.660;2024-03-08T05:11:54;4.97;;;2.33;;
8982;SDS011;20979;59.850;10.660;2024-03-08T05:14:25;4.17;;;2.43;;
8982;SDS011;20979;59.850;10.660;2024-03-08T05:16:52;2.70;;;2.50;;
8982;SDS011;20979;59.850;10.660;2024-03-08T05:19:20;5.10;;;2.50;;
8982;SDS011;20979;59.850;10.660;2024-03-08T05:21:48;6.50;;;2.93;;
8982;SDS011;20979;59.850;10.660;2024-03-08T05:24:15;5.20;;;3.23;;
8982;SDS011;20979;59.850;10.660;2024-03-08T05:26:43;9.73;;;4.10;;
8982;SDS011;20979;59.850;10.660;2024-03-08T05:29:11;13.50;;;4.97;;
8982;SDS011;20979;59.850;10.660;2024-03-08T05:31:42;6.37;;;5.17;;
8982;SDS011;20979;59.850;10.660;2024-03-08T05:34:12;10.63;;;4.47;;
8982;SDS011;20979;59.850;10.660;2024-03-08T05:36:39;7.80;;;4.10;;
8982;SDS011;20979;59.850;10.660;2024-03-08T05:39:09;6.80;;;3.50;;
8982;SDS011;20979;59.850;10.660;2024-03-08T05:41:37;6.13;;;3.33;;
8982;SDS011;20979;59.850;10.660;2024-03-08T05:44:04;4.07;;;3.20;;
8982;SDS011;20979;59.850;10.660;2024-03-08T05:46:32;6.00;;;3.30;;
8982;SDS011;20979;59.850;10.660;2024-03-08T05:49:01;3.87;;;3.10;;
8982;SDS011;20979;59.850;10.660;2024-03-08T05:51:30;3.93;;;3.10;;
8982;SDS011;20979;59.850;10.660;2024-03-08T05:53:59;5.93;;;3.60;;
8982;SDS011;20979;59.850;10.660;2024-03-08T05:56:28;6.73;;;3.20;;
8982;SDS011;20979;59.850;10.660;2024-03-08T05:58:55;5.87;;;3.10;;
8982;SDS011;20979;59.850;10.660;2024-03-08T06:01:23;3.43;;;2.90;;
8982;SDS011;20979;59.850;10.660;2024-03-08T06:03:51;5.47;;;3.10;;
8982;SDS011;20979;59.850;10.660;2024-03-08T06:06:22;5.90;;;2.97;;
8982;SDS011;20979;59.850;10.660;2024-03-08T06:08:50;5.77;;;3.00;;
8982;SDS011;20979;59.850;10.660;2024-03-08T06:11:18;5.77;;;2.77;;
8982;SDS011;20979;59.850;10.660;2024-03-08T06:13:44;6.23;;;2.77;;
8982;SDS011;20979;59.850;10.660;2024-03-08T06:16:12;3.30;;;2.77;;
8982;SDS011;20979;59.850;10.660;2024-03-08T06:18:39;7.00;;;2.83;;
8982;SDS011;20979;59.850;10.660;2024-03-08T06:21:07;3.00;;;2.70;;
8982;SDS011;20979;59.850;10.660;2024-03-08T06:23:38;4.83;;;2.90;;
8982;SDS011;20979;59.850;10.660;2024-03-08T06:26:05;3.97;;;2.80;;
8982;SDS011;20979;59.850;10.660;2024-03-08T06:28:33;6.57;;;2.97;;
8982;SDS011;20979;59.850;10.660;2024-03-08T06:31:01;10.23;;;2.70;;
8982;SDS011;20979;59.850;10.660;2024-03-08T06:33:28;5.27;;;3.20;;
8982;SDS011;20979;59.850;10.660;2024-03-08T06:35:57;8.60;;;3.20;;
8982;SDS011;20979;59.850;10.660;2024-03-08T06:38:24;11.07;;;4.00;;
8982;SDS011;20979;59.850;10.660;2024-03-08T06:40:53;7.43;;;3.70;;
8982;SDS011;20979;59.850;10.660;2024-03-08T06:43:21;6.73;;;3.33;;
8982;SDS011;20979;59.850;10.660;2024-03-08T06:45:50;7.03;;;3.07;;
8982;SDS011;20979;59.850;10.660;2024-03-08T06:48:18;6.27;;;2.97;;
8982;SDS011;20979;59.850;10.660;2024-03-08T06:50:45;6.60;;;3.07;;
8982;SDS011;20979;59.850;10.660;2024-03-08T06:53:13;10.40;;;3.37;;
8982;SDS011;20979;59.850;10.660;2024-03-08T06:55:40;6.70;;;3.17;;
8982;SDS011;20979;59.850;10.660;2024-03-08T06:58:11;16.40;;;4.33;;
8982;SDS011;20979;59.850;10.660;2024-03-08T07:00:38;22.03;;;5.70;;
8982;SDS011;20979;59.850;10.660;2024-03-08T07:03:07;16.30;;;6.30;;
8982;SDS011;20979;59.850;10.660;2024-03-08T07:05:37;15.93;;;6.47;;
8982;SDS011;20979;59.850;10.660;2024-03-08T07:08:05;17.37;;;5.53;;
8982;SDS011;20979;59.850;10.660;2024-03-08T07:10:33;16.07;;;5.17;;
8982;SDS011;20979;59.850;10.660;2024-03-08T07:13:02;18.83;;;4.53;;
8982;SDS011;20979;59.850;10.660;2024-03-08T07:15:31;10.60;;;4.77;;
8982;SDS011;20979;59.850;10.660;2024-03-08T07:17:58;10.67;;;4.53;;
8982;SDS011;20979;59.850;10.660;2024-03-08T07:20:26;13.33;;;4.30;;
8982;SDS011;20979;59.850;10.660;2024-03-08T07:22:54;10.20;;;3.80;;
8982;SDS011;20979;59.850;10.660;2024-03-08T07:25:21;5.47;;;3.80;;
8982;SDS011;20979;59.850;10.660;2024-03-08T07:27:49;5.20;;;4.00;;
8982;SDS011;20979;59.850;10.660;2024-03-08T07:30:17;6.93;;;3.80;;
8982;SDS011;20979;59.850;10.660;2024-03-08T07:33:00;6.50;;;3.93;;
8982;SDS011;20979;59.850;10.660;2024-03-08T07:35:28;9.37;;;4.20;;
8982;SDS011;20979;59.850;10.660;2024-03-08T07:37:56;8.10;;;3.80;;
8982;SDS011;20979;59.850;10.660;2024-03-08T07:40:25;5.67;;;4.00;;
8982;SDS011;20979;59.850;10.660;2024-03-08T07:42:52;7.77;;;3.73;;
8982;SDS011;20979;59.850;10.660;2024-03-08T07:45:20;6.40;;;3.40;;
8982;SDS011;20979;59.850;10.660;2024-03-08T07:47:48;6.17;;;3.63;;
8982;SDS011;20979;59.850;10.660;2024-03-08T07:50:17;4.57;;;3.40;;
8982;SDS011;20979;59.850;10.660;2024-03-08T07:52:44;5.50;;;3.07;;
8982;SDS011;20979;59.850;10.660;2024-03-08T07:55:12;8.73;;;3.40;;
8982;SDS011;20979;59.850;10.660;2024-03-08T07:57:40;6.23;;;3.03;;
8982;SDS011;20979;59.850;10.660;2024-03-08T08:00:08;6.93;;;3.37;;
8982;SDS011;20979;59.850;10.660;2024-03-08T08:02:36;5.80;;;3.40;;
8982;SDS011;20979;59.850;10.660;2024-03-08T08:05:03;24.73;;;4.87;;
8982;SDS011;20979;59.850;10.660;2024-03-08T08:07:32;33.97;;;5.40;;
8982;SDS011;20979;59.850;10.660;2024-03-08T08:10:01;11.87;;;3.40;;
8982;SDS011;20979;59.850;10.660;2024-03-08T08:12:30;13.20;;;3.23;;
8982;SDS011;20979;59.850;10.660;2024-03-08T08:14:59;6.53;;;3.03;;
8982;SDS011;20979;59.850;10.660;2024-03-08T08:17:27;5.03;;;3.00;;
8982;SDS011;20979;59.850;10.660;2024-03-08T08:19:54;4.83;;;2.90;;
8982;SDS011;20979;59.850;10.660;2024-03-08T08:22:21;3.10;;;2.43;;
8982;SDS011;20979;59.850;10.660;2024-03-08T08:24:50;4.23;;;2.80;;
8982;SDS011;20979;59.850;10.660;2024-03-08T08:27:18;7.70;;;2.70;;
8982;SDS011;20979;59.850;10.660;2024-03-08T08:29:45;3.60;;;3.00;;
8982;SDS011;20979;59.850;10.660;2024-03-08T08:32:14;4.13;;;2.80;;
8982;SDS011;20979;59.850;10.660;2024-03-08T08:34:43;5.67;;;2.80;;
8982;SDS011;20979;59.850;10.660;2024-03-08T08:37:11;6.13;;;2.53;;
8982;SDS011;20979;59.850;10.660;2024-03-08T08:39:38;5.90;;;2.93;;
8982;SDS011;20979;59.850;10.660;2024-03-08T08:42:08;6.07;;;2.90;;
8982;SDS011;20979;59.850;10.660;2024-03-08T08:44:36;5.27;;;2.80;;
8982;SDS011;20979;59.850;10.660;2024-03-08T08:47:03;4.37;;;2.47;;
8982;SDS011;20979;59.850;10.660;2024-03-08T08:49:31;6.80;;;2.90;;
8982;SDS011;20979;59.850;10.660;2024-03-08T08:51:58;3.77;;;2.63;;
8982;SDS011;20979;59.850;10.660;2024-03-08T08:54:26;7.47;;;2.90;;
8982;SDS011;20979;59.850;10.660;2024-03-08T08:56:53;6.73;;;2.90;;
8982;SDS011;20979;59.850;10.660;2024-03-08T08:59:22;4.67;;;2.87;;
8982;SDS011;20979;59.850;10.660;2024-03-08T09:01:50;5.40;;;2.43;;
8982;SDS011;20979;59.850;10.660;2024-03-08T09:04:19;4.40;;;3.00;;
8982;SDS011;20979;59.850;10.660;2024-03-08T09:06:48;6.07;;;2.43;;
8982;SDS011;20979;59.850;10.660;2024-03-08T09:09:15;6.97;;;3.20;;
8982;SDS011;20979;59.850;10.660;2024-03-08T09:11:44;5.60;;;2.87;;
8982;SDS011;20979;59.850;10.660;2024-03-08T09:14:11;4.20;;;2.97;;
8982;SDS011;20979;59.850;10.660;2024-03-08T09:16:41;4.47;;;2.80;;
8982;SDS011;20979;59.850;10.660;2024-03-08T09:19:08;3.40;;;2.70;;
8982;SDS011;20979;59.850;10.660;2024-03-08T09:21:36;5.20;;;2.80;;
8982;SDS011;20979;59.850;10.660;2024-03-08T09:24:05;6.37;;;3.00;;
8982;SDS011;20979;59.850;10.660;2024-03-08T09:26:33;5.20;;;2.50;;
8982;SDS011;20979;59.850;10.660;2024-03-08T09:29:00;4.93;;;2.73;;
8982;SDS011;20979;59.850;10.660;2024-03-08T09:31:27;7.17;;;2.70;;
8982;SDS011;20979;59.850;10.660;2024-03-08T09:33:56;3.73;;;2.40;;
8982;SDS011;20979;59.850;10.660;2024-03-08T09:36:24;12.90;;;2.97;;
8982;SDS011;20979;59.850;10.660;2024-03-08T09:38:52;7.17;;;2.83;;
8982;SDS011;20979;59.850;10.660;2024-03-08T09:41:19;6.90;;;2.90;;
8982;SDS011;20979;59.850;10.660;2024-03-08T09:43:47;3.63;;;2.50;;
8982;SDS011;20979;59.850;10.660;2024-03-08T09:46:15;15.70;;;3.47;;
8982;SDS011;20979;59.850;10.660;2024-03-08T09:48:44;4.97;;;2.83;;
8982;SDS011;20979;59.850;10.660;2024-03-08T09:51:13;6.37;;;2.40;;
8982;SDS011;20979;59.850;10.660;2024-03-08T09:53:40;7.10;;;2.83;;
8982;SDS011;20979;59.850;10.660;2024-03-08T09:56:08;8.77;;;2.50;;
8982;SDS011;20979;59.850;10.660;2024-03-08T09:58:36;7.40;;;2.70;;
8982;SDS011;20979;59.850;10.660;2024-03-08T10:01:19;6.07;;;2.67;;
8982;SDS011;20979;59.850;10.660;2024-03-08T10:03:46;5.30;;;2.30;;
8982;SDS011;20979;59.850;10.660;2024-03-08T10:06:18;4.97;;;2.17;;
8982;SDS011;20979;59.850;10.660;2024-03-08T10:08:49;4.60;;;1.80;;
8982;SDS011;20979;59.850;10.660;2024-03-08T10:11:18;3.37;;;2.00;;
8982;SDS011;20979;59.850;10.660;2024-03-08T10:13:45;3.67;;;2.37;;
8982;SDS011;20979;59.850;10.660;2024-03-08T10:16:15;3.43;;;2.10;;
8982;SDS011;20979;59.850;10.660;2024-03-08T10:18:44;3.50;;;2.00;;
8982;SDS011;20979;59.850;10.660;2024-03-08T10:21:12;3.87;;;2.33;;
8982;SDS011;20979;59.850;10.660;2024-03-08T10:23:42;4.83;;;2.07;;
8982;SDS011;20979;59.850;10.660;2024-03-08T10:26:13;3.53;;;2.13;;
8982;SDS011;20979;59.850;10.660;2024-03-08T10:28:41;3.70;;;2.27;;
8982;SDS011;20979;59.850;10.660;2024-03-08T10:31:09;5.50;;;2.27;;
8982;SDS011;20979;59.850;10.660;2024-03-08T10:33:36;5.90;;;2.13;;
8982;SDS011;20979;59.850;10.660;2024-03-08T10:36:05;2.60;;;1.90;;
8982;SDS011;20979;59.850;10.660;2024-03-08T10:38:35;4.33;;;2.20;;
8982;SDS011;20979;59.850;10.660;2024-03-08T10:41:05;3.47;;;2.30;;
8982;SDS011;20979;59.850;10.660;2024-03-08T10:43:38;6.87;;;2.20;;
8982;SDS011;20979;59.850;10.660;2024-03-08T10:46:13;2.77;;;2.03;;
8982;SDS011;20979;59.850;10.660;2024-03-08T10:48:44;3.27;;;2.10;;
8982;SDS011;20979;59.850;10.660;2024-03-08T10:51:12;3.13;;;2.10;;
8982;SDS011;20979;59.850;10.660;2024-03-08T10:53:39;2.63;;;2.20;;
8982;SDS011;20979;59.850;10.660;2024-03-08T10:56:08;4.63;;;2.00;;
8982;SDS011;20979;59.850;10.660;2024-03-08T10:58:36;3.63;;;2.23;;
8982;SDS011;20979;59.850;10.660;2024-03-08T11:01:04;4.23;;;2.20;;
8982;SDS011;20979;59.850;10.660;2024-03-08T11:03:45;3.77;;;2.30;;
8982;SDS011;20979;59.850;10.660;2024-03-08T11:06:14;5.13;;;2.30;;
8982;SDS011;20979;59.850;10.660;2024-03-08T11:08:42;2.63;;;1.93;;
8982;SDS011;20979;59.850;10.660;2024-03-08T11:11:24;3.50;;;2.07;;
8982;SDS011;20979;59.850;10.660;2024-03-08T11:13:56;3.20;;;2.10;;
8982;SDS011;20979;59.850;10.660;2024-03-08T11:16:37;2.30;;;1.90;;
8982;SDS011;20979;59.850;10.660;2024-03-08T11:19:22;3.40;;;2.10;;
8982;SDS011;20979;59.850;10.660;2024-03-08T11:21:56;4.03;;;2.20;;
8982;SDS011;20979;59.850;10.660;2024-03-08T11:24:24;4.20;;;2.10;;
8982;SDS011;20979;59.850;10.660;2024-03-08T11:26:55;3.07;;;2.10;;
8982;SDS011;20979;59.850;10.660;2024-03-08T11:29:34;3.73;;;1.90;;
8982;SDS011;20979;59.850;10.660;2024-03-08T11:32:09;3.70;;;2.03;;
8982;SDS011;20979;59.850;10.660;2024-03-08T11:34:37;3.70;;;1.80;;
8982;SDS011;20979;59.850;10.660;2024-03-08T11:37:05;9.43;;;2.60;;
8982;SDS011;20979;59.850;10.660;2024-03-08T11:39:35;12.43;;;2.50;;
8982;SDS011;20979;59.850;10.660;2024-03-08T11:42:05;3.40;;;1.87;;
8982;SDS011;20979;59.850;10.660;2024-03-08T11:44:33;3.13;;;1.70;;
8982;SDS011;20979;59.850;10.660;2024-03-08T11:47:01;3.70;;;2.00;;
8982;SDS011;20979;59.850;10.660;2024-03-08T11:49:31;2.57;;;2.03;;
8982;SDS011;20979;59.850;10.660;2024-03-08T11:51:59;3.20;;;2.07;;
8982;SDS011;20979;59.850;10.660;2024-03-08T11:54:28;3.47;;;1.73;;
8982;SDS011;20979;59.850;10.660;2024-03-08T11:56:56;3.00;;;1.67;;
8982;SDS011;20979;59.850;10.660;2024-03-08T12:02:07;2.30;;;1.60;;
8982;SDS011;20979;59.850;10.660;2024-03-08T12:04:36;3.03;;;2.00;;
8982;SDS011;20979;59.850;10.660;2024-03-08T12:07:03;3.57;;;1.80;;
8982;SDS011;20979;59.850;10.660;2024-03-08T12:09:35;2.93;;;1.90;;
8982;SDS011;20979;59.850;10.660;2024-03-08T12:12:03;3.97;;;1.70;;
8982;SDS011;20979;59.850;10.660;2024-03-08T12:14:31;2.50;;;2.00;;
8982;SDS011;20979;59.850;10.660;2024-03-08T12:16:58;2.73;;;2.10;;
8982;SDS011;20979;59.850;10.660;2024-03-08T12:31:22;2.17;;;1.80;;
8982;SDS011;20979;59.850;10.660;2024-03-08T12:33:51;3.70;;;1.90;;
8982;SDS011;20979;59.850;10.660;2024-03-08T12:36:19;1.80;;;1.70;;
8982;SDS011;20979;59.850;10.660;2024-03-08T12:38:46;10.13;;;2.73;;
8982;SDS011;20979;59.850;10.660;2024-03-08T12:41:14;2.60;;;1.90;;
8982;SDS011;20979;59.850;10.660;2024-03-08T12:43:42;4.43;;;2.13;;
8982;SDS011;20979;59.850;10.660;2024-03-08T12:46:23;2.00;;;1.90;;
8982;SDS011;20979;59.850;10.660;2024-03-08T12:52:18;3.97;;;2.00;;
8982;SDS011;20979;59.850;10.660;2024-03-08T12:54:46;3.23;;;1.83;;
8982;SDS011;20979;59.850;10.660;2024-03-08T12:57:14;3.40;;;1.90;;
8982;SDS011;20979;59.850;10.660;2024-03-08T12:59:42;3.70;;;1.83;;
8982;SDS011;20979;59.850;10.660;2024-03-08T13:02:11;3.90;;;1.90;;
8982;SDS011;20979;59.850;10.660;2024-03-08T13:04:39;3.10;;;1.83;;
8982;SDS011;20979;59.850;10.660;2024-03-08T13:07:07;2.60;;;1.60;;
8982;SDS011;20979;59.850;10.660;2024-03-08T13:09:35;2.43;;;1.80;;
8982;SDS011;20979;59.850;10.660;2024-03-08T13:12:16;2.00;;;1.80;;
8982;SDS011;20979;59.850;10.660;2024-03-08T13:14:45;1.83;;;1.60;;
8982;SDS011;20979;59.850;10.660;2024-03-08T13:17:14;2.50;;;1.80;;
8982;SDS011;20979;59.850;10.660;2024-03-08T13:19:49;2.67;;;1.70;;
8982;SDS011;20979;59.850;10.660;2024-03-08T13:22:20;3.17;;;1.90;;
8982;SDS011;20979;59.850;10.660;2024-03-08T13:25:02;2.97;;;1.70;;
8982;SDS011;20979;59.850;10.660;2024-03-08T13:27:46;2.10;;;1.90;;
8982;SDS011;20979;59.850;10.660;2024-03-08T13:31:14;3.43;;;1.60;;
8982;SDS011;20979;59.850;10.660;2024-03-08T13:33:36;4.73;;;1.60;;
8982;SDS011;20979;59.850;10.660;2024-03-08T13:36:05;3.13;;;1.87;;
8982;SDS011;20979;59.850;10.660;2024-03-08T13:38:40;2.80;;;1.60;;
8982;SDS011;20979;59.850;10.660;2024-03-08T13:41:21;2.10;;;1.60;;
8982;SDS011;20979;59.850;10.660;2024-03-08T13:44:24;3.10;;;1.70;;
8982;SDS011;20979;59.850;10.660;2024-03-08T13:46:53;3.63;;;2.00;;
8982;SDS011;20979;59.850;10.660;2024-03-08T13:49:24;3.83;;;1.80;;
8982;SDS011;20979;59.850;10.660;2024-03-08T13:51:52;3.23;;;1.70;;
8982;SDS011;20979;59.850;10.660;2024-03-08T13:54:42;2.70;;;1.80;;
8982;SDS011;20979;59.850;10.660;2024-03-08T13:57:27;6.60;;;1.90;;
8982;SDS011;20979;59.850;10.660;2024-03-08T13:59:55;1.87;;;1.60;;
8982;SDS011;20979;59.850;10.660;2024-03-08T14:02:22;4.27;;;1.57;;
8982;SDS011;20979;59.850;10.660;2024-03-08T14:05:17;3.70;;;1.63;;
8982;SDS011;20979;59.850;10.660;2024-03-08T14:07:45;2.17;;;1.40;;
8982;SDS011;20979;59.850;10.660;2024-03-08T14:10:14;1.93;;;1.73;;
8982;SDS011;20979;59.850;10.660;2024-03-08T14:12:52;1.97;;;1.73;;
8982;SDS011;20979;59.850;10.660;2024-03-08T14:21:37;3.77;;;1.73;;
8982;SDS011;20979;59.850;10.660;2024-03-08T14:24:27;3.00;;;1.73;;
8982;SDS011;20979;59.850;10.660;2024-03-08T14:26:55;2.07;;;1.60;;
8982;SDS011;20979;59.850;10.660;2024-03-08T14:29:40;3.17;;;1.60;;
8982;SDS011;20979;59.850;10.660;2024-03-08T14:32:31;2.93;;;1.47;;
8982;SDS011;20979;59.850;10.660;2024-03-08T14:38:09;2.03;;;1.50;;
8982;SDS011;20979;59.850;10.660;2024-03-08T14:40:38;2.00;;;1.50;;
8982;SDS011;20979;59.850;10.660;2024-03-08T14:43:31;3.20;;;1.80;;
8982;SDS011;20979;59.850;10.660;2024-03-08T14:46:14;3.50;;;1.60;;
8982;SDS011;20979;59.850;10.660;2024-03-08T14:48:43;4.27;;;1.50;;
8982;SDS011;20979;59.850;10.660;2024-03-08T14:54:23;2.50;;;1.60;;
8982;SDS011;20979;59.850;10.660;2024-03-08T14:57:13;2.10;;;1.50;;
8982;SDS011;20979;59.850;10.660;2024-03-08T15:00:02;2.17;;;1.50;;
8982;SDS011;20979;59.850;10.660;2024-03-08T15:02:41;2.20;;;1.43;;
8982;SDS011;20979;59.850;10.660;2024-03-08T15:11:17;1.73;;;1.27;;
8982;SDS011;20979;59.850;10.660;2024-03-08T15:13:46;2.97;;;1.50;;
8982;SDS011;20979;59.850;10.660;2024-03-08T15:16:21;3.53;;;1.90;;
8982;SDS011;20979;59.850;10.660;2024-03-08T15:24:59;2.00;;;1.40;;
8982;SDS011;20979;59.850;10.660;2024-03-08T15:27:28;2.80;;;1.40;;
8982;SDS011;20979;59.850;10.660;2024-03-08T15:29:55;4.10;;;1.80;;
8982;SDS011;20979;59.850;10.660;2024-03-08T15:32:25;1.63;;;1.50;;
8982;SDS011;20979;59.850;10.660;2024-03-08T15:38:00;3.27;;;1.63;;
8982;SDS011;20979;59.850;10.660;2024-03-08T15:40:28;3.40;;;1.73;;
8982;SDS011;20979;59.850;10.660;2024-03-08T15:42:57;2.40;;;1.40;;
8982;SDS011;20979;59.850;10.660;2024-03-08T15:45:57;2.33;;;1.53;;
8982;SDS011;20979;59.850;10.660;2024-03-08T15:48:48;5.27;;;1.50;;